CL77 weather

Bonny Doon Village Airport
Santa Cruz, California, United States

Public forecast

Using degrees Fahrenheit for public forecast. Weather courtesy of forecast.io.

METAR (pilot weather report)

Closest report is Watsonville Municipal Airport, 18.1 nm (33.5 km) ESE. Retrieved 2019/06/20 11:53 UTC (29 minutes ago):

KWVI 201153Z AUTO 24006KT 9SM OVC004 14/13 A2994 RMK AO2 RAE04B30E49 SLP138 P0001 60004 70004 T01390128 10144 20139 56004 $

TAF (pilot weather forecast)

Closest forecast is Norman Y. Mineta San Jose International Airport, 19.9 nm (36.9 km) NNE. Retrieved 2019/06/20 06:24 UTC (6 hours ago):

TAF KSJC 200521Z 2006/2106 32007KT P6SM FEW010 FM200800 15010KT P6SM SCT012 TEMPO 2008/2012 BKN012 FM201200 15010KT P6SM BKN010 FM201600 14008KT P6SM FEW010 FM202000 31012KT P6SM FEW015